ADDS METAR Data INFO
IDs: Format: Raw Decoded Include TAF

Data at: 1518 UTC 23 Oct 2017

KJHN 231515Z AUTO 36015G23KT 10SM CLR 13/01 A3031 RMK AO2 T01340013
KJHN 231455Z AUTO 36018G23KT 10SM CLR 13/01 A3029 RMK AO2 T01320012
KJHN 231435Z AUTO 36013G19KT 10SM CLR 13/01 A3027 RMK AO2 T01310011
KJHN 231415Z AUTO 01015G22KT 10SM CLR 13/01 A3024 RMK AO2 T01310010
KJHN 231355Z AUTO 01014G19KT 10SM CLR 12/01 A3021 RMK AO2 T01190007
KJHN 231335Z AUTO 36012G16KT 10SM CLR 11/00 A3019 RMK AO2 T01110000
KJHN 231315Z AUTO 33008KT 10SM CLR 09/00 A3017 RMK AO2 T00850000
KJHN 231255Z AUTO 33011KT 10SM CLR 09/00 A3015 RMK AO2 T00911002
KJHN 231235Z AUTO 32010KT 10SM CLR 10/00 A3013 RMK AO2 T00951004
KJHN 231215Z AUTO 32010KT 10SM CLR 09/00 A3013 RMK AO2 T00931004
KJHN 231155Z AUTO 32011KT 10SM CLR 09/00 A3012 RMK AO2 T00931005 10100 20053
KJHN 231135Z AUTO 31010KT 10SM CLR 09/M01 A3012 RMK AO2 T00921010
KJHN 231115Z AUTO 30009KT 10SM CLR 09/M01 A3010 RMK AO2 T00941008
KJHN 231055Z AUTO 31010KT 10SM CLR 10/M01 A3009 RMK AO2 T00991007
KJHN 231035Z AUTO 30011KT 10SM CLR 09/00 A3008 RMK AO2 T00900000
KJHN 231015Z AUTO 29010KT 10SM CLR 09/00 A3007 RMK AO2 T00870001
KJHN 230955Z AUTO 30010KT 10SM CLR 08/00 A3007 RMK AO2 T00840001
KJHN 230935Z AUTO 29008KT 10SM CLR 08/00 A3006 RMK AO2 T00840001
KJHN 230915Z AUTO 29009KT 10SM CLR 08/01 A3006 RMK AO2 T00750005
KJHN 230855Z AUTO 30009KT 10SM CLR 08/00 A3006 RMK AO2 T00810002
KJHN 230835Z AUTO 29009KT 10SM CLR 07/00 A3006 RMK AO2 T00700002
KJHN 230815Z AUTO 30006KT 10SM CLR 07/00 A3006 RMK AO2 T00700002
KJHN 230755Z AUTO 31007KT 10SM CLR 07/00 A3006 RMK AO2 T00730001
KJHN 230735Z AUTO 31006KT 10SM CLR 06/00 A3005 RMK AO2 T00610000
KJHN 230715Z AUTO 31005KT 10SM CLR 06/00 A3005 RMK AO2 T00591001
KJHN 230655Z AUTO 31003KT 10SM CLR 06/00 A3005 RMK AO2 T00630000
KJHN 230635Z AUTO 30007KT 10SM CLR 07/00 A3005 RMK AO2 T00660000
KJHN 230615Z AUTO 29007KT 10SM CLR 07/00 A3006 RMK AO2 T00670000
KJHN 230555Z AUTO 31006KT 10SM CLR 06/00 A3006 RMK AO2 T00581004 10179 20058 402201007
KJHN 230535Z AUTO 27006KT 10SM CLR 08/00 A3006 RMK AO2 T00771002
KJHN 230515Z AUTO 00000KT 10SM CLR 08/00 A3006 RMK AO2 T00821003
KJHN 230455Z AUTO 25008KT 10SM CLR 09/00 A3006 RMK AO2 T00891002
KJHN 230435Z AUTO 20005KT 10SM CLR 06/M01 A3007 RMK AO2 T00611010
KJHN 230415Z AUTO 22003KT 10SM CLR 09/M01 A3007 RMK AO2 T00911010
KJHN 230355Z AUTO 22008KT 10SM CLR 09/M01 A3007 RMK AO2 T00921011
KJHN 230335Z AUTO 19008KT 10SM CLR 09/M01 A3007 RMK AO2 T00861013
KJHN 230315Z AUTO 21006KT 10SM CLR 10/M02 A3008 RMK AO2 T01031016
KJHN 230255Z AUTO 21004KT 10SM CLR 12/M02 A3007 RMK AO2 T01161021
KJHN 230235Z AUTO 20010KT 10SM CLR 13/M02 A3006 RMK AO2 T01271024
KJHN 230215Z AUTO 20007KT 10SM CLR 13/M02 A3007 RMK AO2 T01251021
KJHN 230155Z AUTO 19008KT 10SM CLR 12/M02 A3007 RMK AO2 T01201022
KJHN 230135Z AUTO 19008KT 10SM CLR 12/M02 A3007 RMK AO2 T01181023
KJHN 230115Z AUTO 19007KT 10SM CLR 13/M03 A3009 RMK AO2 T01301026
KJHN 230055Z AUTO 20006KT 10SM CLR 13/M03 A3009 RMK AO2 T01261026
KJHN 230035Z AUTO 19006KT 10SM CLR 13/M03 A3008 RMK AO2 T01281027
KJHN 230015Z AUTO 18005KT 10SM CLR 17/M03 A3008 RMK AO2 T01671035
KJHN 222355Z AUTO 21009KT 10SM CLR 18/M04 A3008 RMK AO2 T01801039 10220 20177
KJHN 222335Z AUTO 21007KT 10SM CLR 18/M04 A3009 RMK AO2 T01821037
KJHN 222315Z AUTO 21006KT 10SM CLR 20/M04 A3010 RMK AO2 T02021042
KJHN 222255Z AUTO 20007KT 10SM CLR 21/M05 A3008 RMK AO2 T02051047
KJHN 222235Z AUTO 22010KT 10SM CLR 21/M05 A3008 RMK AO2 T02111050
KJHN 222215Z AUTO 20009KT 10SM CLR 22/M05 A3009 RMK AO2 T02151055
KJHN 222155Z AUTO 21010G16KT 10SM CLR 21/M06 A3010 RMK AO2 T02131059
KJHN 222135Z AUTO 21012KT 10SM CLR 22/M06 A3010 RMK AO2 T02191058
KJHN 222115Z AUTO 21009KT 10SM CLR 22/M06 A3011 RMK AO2 T02171065
KJHN 222055Z AUTO 22008KT 10SM CLR 22/M07 A3011 RMK AO2 T02171066
KJHN 222035Z AUTO 19010G14KT 10SM CLR 21/M07 A3012 RMK AO2 T02111067
KJHN 222015Z AUTO 21010G19KT 10SM CLR 21/M07 A3013 RMK AO2 T02091067
KJHN 221955Z AUTO 21009G15KT 10SM CLR 20/M07 A3015 RMK AO2 T02041068
KJHN 221935Z AUTO 21011G15KT 180V240 10SM CLR 20/M06 A3016 RMK AO2 T02031065
KJHN 221915Z AUTO 22009G17KT 10SM CLR 20/M07 A3017 RMK AO2 T01961067
KJHN 221855Z AUTO 21013G18KT 10SM CLR 19/M06 A3017 RMK AO2 T01901059
KJHN 221835Z AUTO 20012G17KT 180V240 10SM CLR 19/M06 A3020 RMK AO2 T01881064
KJHN 221815Z AUTO 21015G19KT 10SM CLR 18/M07 A3021 RMK AO2 T01801073
KJHN 221755Z AUTO 23014G19KT 10SM CLR 18/M07 A3022 RMK AO2 T01751074 10175 21007
KJHN 221735Z AUTO 21014G19KT 10SM CLR 17/M09 A3024 RMK AO2 T01701086
KJHN 221715Z AUTO 20012G19KT 10SM CLR 17/M08 A3024 RMK AO2 T01661081
KJHN 221655Z AUTO 20012KT 10SM CLR 16/M08 A3025 RMK AO2 T01591080
KJHN 221635Z AUTO 18011G15KT 10SM CLR 15/M08 A3025 RMK AO2 T01491078
KJHN 221615Z AUTO 19012KT 10SM CLR 15/M07 A3026 RMK AO2 T01471071
KJHN 221555Z AUTO 20008KT 10SM CLR 14/M06 A3027 RMK AO2 T01381063
KJHN 221535Z AUTO 20006KT 10SM CLR 13/M06 A3028 RMK AO2 T01271060
KJHN 221515Z AUTO 19007KT 10SM CLR 11/M06 A3026 RMK AO2 T01141056
KJHN 221455Z AUTO 21007KT 10SM CLR 09/M05 A3026 RMK AO2 T00941049
KJHN 221435Z AUTO 23006KT 10SM CLR 07/M05 A3026 RMK AO2 T00721054
KJHN 221415Z AUTO 25003KT 10SM CLR 05/M05 A3026 RMK AO2 T00481053
KJHN 221355Z AUTO 25005KT 10SM CLR 02/M05 A3026 RMK AO2 T00241055
KJHN 221335Z AUTO 26005KT 10SM CLR 01/M06 A3024 RMK AO2 T00071058
KJHN 221315Z AUTO 25005KT 10SM CLR 00/M06 A3024 RMK AO2 T10011062
KJHN 221255Z AUTO 24006KT 10SM CLR M01/M06 A3024 RMK AO2 T10061062
KJHN 221235Z AUTO 25006KT 10SM CLR 00/M06 A3024 RMK AO2 T00011064
KJHN 221215Z AUTO 26006KT 10SM CLR 00/M06 A3024 RMK AO2 T00031065
KJHN 221155Z AUTO 26006KT 10SM CLR 01/M06 A3024 RMK AO2 T00071065 10020 21004
KJHN 221135Z AUTO 26006KT 10SM CLR 01/M06 A3024 RMK AO2 T00071064
KJHN 221115Z AUTO 26007KT 10SM CLR 01/M06 A3023 RMK AO2 T00071064
KJHN 221055Z AUTO 28007KT 10SM CLR 00/M06 A3023 RMK AO2 T10031062
KJHN 221035Z AUTO 28007KT 10SM CLR 00/M06 A3022 RMK AO2 T00021061
KJHN 221015Z AUTO 29007KT 10SM CLR 00/M06 A3021 RMK AO2 T00001064
KJHN 220955Z AUTO 29007KT 10SM CLR 00/M06 A3020 RMK AO2 T00001065
KJHN 220935Z AUTO 30007KT 10SM CLR 01/M07 A3020 RMK AO2 T00051068
KJHN 220915Z AUTO 29008KT 10SM CLR 01/M06 A3019 RMK AO2 T00061065
KJHN 220855Z AUTO 28007KT 10SM CLR 01/M06 A3019 RMK AO2 T00061063
KJHN 220835Z AUTO 27009KT 10SM CLR 02/M06 A3019 RMK AO2 T00161064
KJHN 220815Z AUTO 28009KT 10SM CLR 01/M06 A3019 RMK AO2 T00121061
KJHN 220755Z AUTO 27008KT 10SM CLR 02/M06 A3019 RMK AO2 T00151061
KJHN 220735Z AUTO 28008KT 10SM CLR 01/M06 A3019 RMK AO2 T00131063
KJHN 220715Z AUTO 28006KT 10SM CLR 00/M06 A3018 RMK AO2 T00041060
KJHN 220655Z AUTO 28007KT 10SM CLR 01/M06 A3019 RMK AO2 T00071061
KJHN 220635Z AUTO 28006KT 10SM CLR 01/M06 A3018 RMK AO2 T00071059
KJHN 220615Z AUTO 28007KT 10SM CLR 02/M06 A3017 RMK AO2 T00151061
KJHN 220555Z AUTO 29008KT 10SM CLR 02/M07 A3016 RMK AO2 T00171066 10137 20017 401800017
KJHN 220535Z AUTO 31006KT 10SM CLR 03/M06 A3015 RMK AO2 T00281065
KJHN 220515Z AUTO 31005KT 10SM CLR 03/M06 A3013 RMK AO2 T00301063
KJHN 220455Z AUTO 30009KT 10SM CLR 03/M06 A3012 RMK AO2 T00341061
KJHN 220435Z AUTO 31008KT 10SM CLR 03/M06 A3011 RMK AO2 T00321060
KJHN 220415Z AUTO 31006KT 10SM CLR 04/M06 A3010 RMK AO2 T00381061
KJHN 220355Z AUTO 30005KT 10SM CLR 04/M06 A3010 RMK AO2 T00351059
KJHN 220335Z AUTO 31007KT 10SM CLR 04/M06 A3009 RMK AO2 T00441059